McClellan-Palomar Airport (CRQ/KCRQ)

Map

Destinations

Information

Location
Carlsbad, CA
Local Time
18:38 / 6:38 pm
GMT Time
02:38 / 2:38 am
Gates
Unassigned
No FAA reported delays
METAR KCRQ 170153Z AUTO 30003KT 10SM CLR 14/12 A3003 RMK AO2 SLP167 T01390117
TAF KCRQ 162332Z 1700/1724 VRB05KT P6SM FEW010
  • No charts available